EFW8CD EGKK-LOWG
Flight info
| Callsign | EFW8CD |
|---|---|
| Flight time | N/A |
| Altitude | 37000 |
| Route | ODVIK Y311 DVR UL9 KONAN DCT KOK DCT REMBA DCT LIRSU DCT LALMI DCT ABTAL DCT RIDAR DCT GOMIG DCT LEOBE LEOBE2M |
| Aircraft | A320/M-SDE3FGHIRWY/LB1 |
Departure
| Time | 2026-05-06 11:42 |
|---|---|
| Airport | London Gatwick Airport (EGKK) |
Arrival
| Time | N/A |
|---|---|
| Airport | Graz Airport (LOWG) |
| Time | Latitude | Longitude | Altitude | Speed | Heading |
|---|---|---|---|---|---|
| 2026-05-06 11:19 | 51.15465 | -0.17156 | 204 ft | 0 kts | 36° |
| 2026-05-06 11:31 | 51.15459 | -0.17162 | 216 ft | 4 kts | 36° |
| 2026-05-06 11:31 | 51.15437 | -0.17188 | 206 ft | 4 kts | 36° |
| 2026-05-06 11:31 | 51.15420 | -0.17210 | 212 ft | 4 kts | 60° |
| 2026-05-06 11:31 | 51.15416 | -0.17245 | 214 ft | 4 kts | 118° |
| 2026-05-06 11:32 | 51.15433 | -0.17272 | 215 ft | 4 kts | 164° |
| 2026-05-06 11:32 | 51.15455 | -0.17280 | 209 ft | 0 kts | 167° |
| 2026-05-06 11:34 | 51.15446 | -0.17277 | 213 ft | 3 kts | 167° |
| 2026-05-06 11:34 | 51.15421 | -0.17268 | 214 ft | 5 kts | 167° |
| 2026-05-06 11:35 | 51.15381 | -0.17254 | 206 ft | 7 kts | 167° |
| 2026-05-06 11:35 | 51.15327 | -0.17255 | 204 ft | 9 kts | 198° |
| 2026-05-06 11:35 | 51.15307 | -0.17342 | 204 ft | 10 kts | 269° |
| 2026-05-06 11:35 | 51.15299 | -0.17460 | 210 ft | 12 kts | 258° |
| 2026-05-06 11:36 | 51.15280 | -0.17596 | 203 ft | 14 kts | 257° |
| 2026-05-06 11:36 | 51.15259 | -0.17753 | 210 ft | 15 kts | 258° |
| 2026-05-06 11:36 | 51.15235 | -0.17928 | 204 ft | 17 kts | 257° |
| 2026-05-06 11:36 | 51.15207 | -0.18124 | 204 ft | 19 kts | 257° |
| 2026-05-06 11:37 | 51.15182 | -0.18345 | 204 ft | 21 kts | 260° |
| 2026-05-06 11:37 | 51.15150 | -0.18586 | 203 ft | 23 kts | 257° |
| 2026-05-06 11:37 | 51.15113 | -0.18851 | 215 ft | 26 kts | 258° |
| 2026-05-06 11:37 | 51.15074 | -0.19137 | 204 ft | 27 kts | 258° |
| 2026-05-06 11:38 | 51.15033 | -0.19437 | 206 ft | 29 kts | 258° |
| 2026-05-06 11:38 | 51.14989 | -0.19760 | 204 ft | 31 kts | 258° |
| 2026-05-06 11:38 | 51.14944 | -0.20083 | 210 ft | 23 kts | 257° |
| 2026-05-06 11:38 | 51.14907 | -0.20348 | 206 ft | 26 kts | 258° |
| 2026-05-06 11:39 | 51.14868 | -0.20636 | 212 ft | 28 kts | 258° |
| 2026-05-06 11:39 | 51.14825 | -0.20944 | 214 ft | 29 kts | 257° |
| 2026-05-06 11:39 | 51.14787 | -0.21163 | 210 ft | 18 kts | 243° |
| 2026-05-06 11:39 | 51.14762 | -0.21335 | 204 ft | 12 kts | 257° |
| 2026-05-06 11:40 | 51.14694 | -0.21390 | 207 ft | 13 kts | 162° |
| 2026-05-06 11:40 | 51.14617 | -0.21327 | 204 ft | 9 kts | 167° |
| 2026-05-06 11:40 | 51.14551 | -0.21284 | 211 ft | 12 kts | 141° |
| 2026-05-06 11:40 | 51.14521 | -0.21162 | 204 ft | 8 kts | 78° |
| 2026-05-06 11:41 | 51.14521 | -0.21160 | 204 ft | 0 kts | 78° |
| 2026-05-06 11:41 | 51.14563 | -0.20856 | 204 ft | 62 kts | 77° |
| 2026-05-06 11:41 | 51.14699 | -0.19868 | 210 ft | 118 kts | 77° |
| 2026-05-06 11:41 | 51.14907 | -0.18368 | 215 ft | 160 kts | 76° |
| 2026-05-06 11:42 | 51.15137 | -0.16634 | 766 ft | 160 kts | 75° |
| 2026-05-06 11:42 | 51.15366 | -0.14890 | 1438 ft | 160 kts | 74° |
| 2026-05-06 11:42 | 51.15603 | -0.13170 | 2084 ft | 158 kts | 73° |
| 2026-05-06 11:42 | 51.15814 | -0.11653 | 2613 ft | 157 kts | 73° |
| 2026-05-06 11:43 | 51.16065 | -0.09868 | 2940 ft | 176 kts | 74° |
| 2026-05-06 11:43 | 51.16351 | -0.07847 | 3202 ft | 198 kts | 75° |
| 2026-05-06 11:43 | 51.16670 | -0.05582 | 3490 ft | 220 kts | 74° |
| 2026-05-06 11:44 | 51.16865 | -0.00207 | 4476 ft | 261 kts | 88° |
| 2026-05-06 11:44 | 51.16834 | 0.02713 | 5338 ft | 266 kts | 87° |
| 2026-05-06 11:44 | 51.16833 | 0.05693 | 6191 ft | 272 kts | 86° |
| 2026-05-06 11:44 | 51.16846 | 0.08727 | 7004 ft | 276 kts | 86° |
| 2026-05-06 11:45 | 51.16860 | 0.11821 | 7826 ft | 281 kts | 86° |
| 2026-05-06 11:45 | 51.16867 | 0.13884 | 8370 ft | 283 kts | 86° |
| 2026-05-06 11:45 | 51.16864 | 0.17348 | 9254 ft | 288 kts | 87° |
| 2026-05-06 11:45 | 51.16866 | 0.20553 | 10056 ft | 291 kts | 88° |
| 2026-05-06 11:46 | 51.16869 | 0.23861 | 10446 ft | 310 kts | 87° |
| 2026-05-06 11:46 | 51.16874 | 0.27416 | 10644 ft | 332 kts | 87° |
| 2026-05-06 11:46 | 51.16880 | 0.31215 | 10902 ft | 350 kts | 87° |
| 2026-05-06 11:46 | 51.16878 | 0.35137 | 11493 ft | 357 kts | 88° |
| 2026-05-06 11:47 | 51.16868 | 0.39118 | 12101 ft | 362 kts | 89° |
| 2026-05-06 11:47 | 51.16853 | 0.43097 | 12734 ft | 366 kts | 89° |
| 2026-05-06 11:47 | 51.16837 | 0.47178 | 13411 ft | 370 kts | 88° |
| 2026-05-06 11:47 | 51.16823 | 0.51308 | 14004 ft | 375 kts | 89° |
| 2026-05-06 11:48 | 51.16811 | 0.55489 | 14591 ft | 379 kts | 89° |
| 2026-05-06 11:48 | 51.16796 | 0.59696 | 15188 ft | 381 kts | 90° |
| 2026-05-06 11:48 | 51.16781 | 0.63947 | 15707 ft | 386 kts | 89° |
| 2026-05-06 11:48 | 51.16764 | 0.68237 | 16269 ft | 388 kts | 90° |
| 2026-05-06 11:49 | 51.16746 | 0.72552 | 16850 ft | 392 kts | 90° |
| 2026-05-06 11:49 | 51.16725 | 0.76914 | 17388 ft | 396 kts | 90° |
| 2026-05-06 11:49 | 51.16703 | 0.81317 | 17989 ft | 399 kts | 90° |
| 2026-05-06 11:49 | 51.16675 | 0.85750 | 18551 ft | 402 kts | 90° |
| 2026-05-06 11:50 | 51.16644 | 0.90234 | 19030 ft | 407 kts | 90° |
| 2026-05-06 11:50 | 51.16612 | 0.94694 | 19576 ft | 409 kts | 90° |
| 2026-05-06 11:50 | 51.16579 | 0.99252 | 20161 ft | 412 kts | 91° |
| 2026-05-06 11:50 | 51.16545 | 1.03825 | 20683 ft | 415 kts | 91° |
| 2026-05-06 11:51 | 51.16511 | 1.08433 | 21215 ft | 417 kts | 91° |
| 2026-05-06 11:51 | 51.16477 | 1.13078 | 21656 ft | 421 kts | 91° |
| 2026-05-06 11:51 | 51.16441 | 1.17758 | 22141 ft | 424 kts | 91° |
| 2026-05-06 11:51 | 51.16400 | 1.22455 | 22620 ft | 426 kts | 91° |
| 2026-05-06 11:52 | 51.16354 | 1.27197 | 23058 ft | 429 kts | 91° |
| 2026-05-06 11:52 | 51.16305 | 1.31957 | 23523 ft | 431 kts | 92° |
| 2026-05-06 11:52 | 51.16248 | 1.36748 | 23884 ft | 434 kts | 93° |
| 2026-05-06 11:52 | 51.16111 | 1.41572 | 24248 ft | 436 kts | 94° |
| 2026-05-06 11:53 | 51.15975 | 1.44761 | 24524 ft | 436 kts | 95° |
| 2026-05-06 11:53 | 51.15726 | 1.49598 | 24859 ft | 439 kts | 96° |
| 2026-05-06 11:53 | 51.15450 | 1.54453 | 25205 ft | 441 kts | 96° |
| 2026-05-06 11:53 | 51.15171 | 1.59321 | 25589 ft | 442 kts | 95° |
| 2026-05-06 11:54 | 51.14902 | 1.64215 | 25902 ft | 445 kts | 96° |
| 2026-05-06 11:54 | 51.14642 | 1.69141 | 26263 ft | 446 kts | 95° |
| 2026-05-06 11:54 | 51.14392 | 1.74074 | 26627 ft | 448 kts | 96° |
| 2026-05-06 11:54 | 51.14145 | 1.79013 | 26946 ft | 450 kts | 95° |
| 2026-05-06 11:55 | 51.13901 | 1.83986 | 27324 ft | 451 kts | 95° |
| 2026-05-06 11:55 | 51.13654 | 1.88987 | 27650 ft | 454 kts | 95° |
| 2026-05-06 11:55 | 51.13398 | 1.94000 | 27995 ft | 455 kts | 95° |
| 2026-05-06 11:55 | 51.13142 | 1.98953 | 28431 ft | 454 kts | 95° |
| 2026-05-06 11:56 | 51.12877 | 2.04008 | 28905 ft | 452 kts | 95° |
| 2026-05-06 11:56 | 51.12615 | 2.08923 | 29380 ft | 451 kts | 96° |
| 2026-05-06 11:56 | 51.12346 | 2.13887 | 29875 ft | 449 kts | 96° |
| 2026-05-06 11:56 | 51.12076 | 2.18837 | 30296 ft | 448 kts | 96° |
| 2026-05-06 11:57 | 51.11807 | 2.23776 | 30730 ft | 446 kts | 96° |
| 2026-05-06 11:57 | 51.11538 | 2.28690 | 31141 ft | 445 kts | 96° |
| 2026-05-06 11:57 | 51.11267 | 2.33599 | 31546 ft | 444 kts | 96° |
| 2026-05-06 11:57 | 51.10994 | 2.38490 | 31982 ft | 443 kts | 97° |
| 2026-05-06 11:58 | 51.10720 | 2.43358 | 32413 ft | 441 kts | 96° |
| 2026-05-06 11:58 | 51.10446 | 2.48217 | 32836 ft | 440 kts | 96° |
| 2026-05-06 11:58 | 51.10170 | 2.53070 | 33262 ft | 439 kts | 96° |
| 2026-05-06 11:58 | 51.09891 | 2.57906 | 33676 ft | 438 kts | 97° |
| 2026-05-06 11:59 | 51.09610 | 2.62729 | 34072 ft | 437 kts | 97° |
| 2026-05-06 11:59 | 51.09063 | 2.67471 | 34370 ft | 436 kts | 107° |
| 2026-05-06 11:59 | 51.08227 | 2.72103 | 34625 ft | 437 kts | 107° |
| 2026-05-06 11:59 | 51.07391 | 2.76692 | 34873 ft | 438 kts | 107° |
| 2026-05-06 12:00 | 51.06547 | 2.81343 | 35136 ft | 438 kts | 108° |
| 2026-05-06 12:00 | 51.05702 | 2.85999 | 35371 ft | 439 kts | 108° |
| 2026-05-06 12:00 | 51.04854 | 2.90669 | 35640 ft | 439 kts | 108° |
| 2026-05-06 12:00 | 51.04003 | 2.95334 | 35895 ft | 440 kts | 108° |
| 2026-05-06 12:01 | 51.03149 | 3.00005 | 36126 ft | 441 kts | 108° |
| 2026-05-06 12:01 | 51.02292 | 3.04684 | 36348 ft | 442 kts | 108° |
| 2026-05-06 12:01 | 51.01430 | 3.09373 | 36580 ft | 442 kts | 108° |
| 2026-05-06 12:01 | 51.00562 | 3.14071 | 36802 ft | 443 kts | 108° |
| 2026-05-06 12:02 | 50.99693 | 3.18762 | 36918 ft | 445 kts | 108° |
| 2026-05-06 12:02 | 50.98814 | 3.23500 | 36927 ft | 450 kts | 108° |
| 2026-05-06 12:02 | 50.97034 | 3.33076 | 36914 ft | 453 kts | 108° |
| 2026-05-06 12:03 | 50.95241 | 3.42664 | 36913 ft | 453 kts | 108° |
| 2026-05-06 12:03 | 50.93449 | 3.52184 | 36911 ft | 453 kts | 108° |
| 2026-05-06 12:04 | 50.91640 | 3.61751 | 36907 ft | 453 kts | 108° |
| 2026-05-06 12:04 | 50.89829 | 3.71312 | 36911 ft | 453 kts | 108° |
| 2026-05-06 12:05 | 50.88007 | 3.80877 | 36903 ft | 453 kts | 109° |
| 2026-05-06 12:05 | 50.86168 | 3.90437 | 36909 ft | 453 kts | 109° |
| 2026-05-06 12:06 | 50.84325 | 3.99984 | 36912 ft | 454 kts | 109° |
| 2026-05-06 12:06 | 50.82481 | 4.09517 | 36914 ft | 454 kts | 109° |
| 2026-05-06 12:07 | 50.80624 | 4.19061 | 36911 ft | 453 kts | 109° |
| 2026-05-06 12:07 | 50.78755 | 4.28582 | 36908 ft | 453 kts | 109° |
| 2026-05-06 12:08 | 50.76882 | 4.38082 | 36909 ft | 453 kts | 109° |
| 2026-05-06 12:08 | 50.75004 | 4.47565 | 36908 ft | 453 kts | 109° |
| 2026-05-06 12:09 | 50.73140 | 4.56993 | 36909 ft | 453 kts | 109° |
| 2026-05-06 12:09 | 50.71250 | 4.66480 | 36909 ft | 453 kts | 109° |
| 2026-05-06 12:10 | 50.69347 | 4.75955 | 36898 ft | 453 kts | 110° |
| 2026-05-06 12:10 | 50.67429 | 4.85438 | 36904 ft | 454 kts | 110° |
| 2026-05-06 12:11 | 50.65305 | 4.94464 | 36902 ft | 451 kts | 117° |
| 2026-05-06 12:11 | 50.62610 | 5.03386 | 36896 ft | 451 kts | 117° |
| 2026-05-06 12:12 | 50.59949 | 5.12246 | 36885 ft | 451 kts | 117° |
| 2026-05-06 12:12 | 50.57261 | 5.21178 | 36881 ft | 452 kts | 117° |
| 2026-05-06 12:13 | 50.54554 | 5.30103 | 36882 ft | 452 kts | 118° |
| 2026-05-06 12:13 | 50.51855 | 5.38960 | 36874 ft | 452 kts | 118° |
| 2026-05-06 12:14 | 50.49126 | 5.47879 | 36876 ft | 453 kts | 118° |
| 2026-05-06 12:14 | 50.46388 | 5.56792 | 36868 ft | 453 kts | 118° |
| 2026-05-06 12:15 | 50.43644 | 5.65710 | 36872 ft | 454 kts | 118° |
| 2026-05-06 12:15 | 50.40889 | 5.74608 | 36875 ft | 454 kts | 118° |
| 2026-05-06 12:16 | 50.38131 | 5.83501 | 36871 ft | 454 kts | 118° |
| 2026-05-06 12:16 | 50.35361 | 5.92405 | 36869 ft | 454 kts | 118° |
| 2026-05-06 12:17 | 50.32586 | 6.01278 | 36858 ft | 454 kts | 119° |
| 2026-05-06 12:17 | 50.29805 | 6.10146 | 36847 ft | 454 kts | 119° |
| 2026-05-06 12:18 | 50.27019 | 6.18984 | 36844 ft | 453 kts | 119° |
| 2026-05-06 12:18 | 50.24231 | 6.27818 | 36828 ft | 453 kts | 119° |
| 2026-05-06 12:19 | 50.21442 | 6.36623 | 36829 ft | 452 kts | 119° |
| 2026-05-06 12:19 | 50.18663 | 6.45356 | 36793 ft | 452 kts | 120° |
| 2026-05-06 12:20 | 50.15787 | 6.54061 | 36793 ft | 451 kts | 121° |
| 2026-05-06 12:20 | 50.12828 | 6.62688 | 36805 ft | 451 kts | 121° |
| 2026-05-06 12:21 | 50.09865 | 6.71292 | 36810 ft | 451 kts | 121° |
| 2026-05-06 12:21 | 50.06923 | 6.79927 | 36812 ft | 451 kts | 121° |
| 2026-05-06 12:22 | 50.03981 | 6.88554 | 36793 ft | 451 kts | 121° |
| 2026-05-06 12:22 | 50.01023 | 6.97161 | 36807 ft | 452 kts | 121° |
| 2026-05-06 12:23 | 49.98058 | 7.05771 | 36792 ft | 452 kts | 121° |
| 2026-05-06 12:23 | 49.95104 | 7.14327 | 36791 ft | 453 kts | 121° |
| 2026-05-06 12:24 | 49.92100 | 7.22995 | 36798 ft | 453 kts | 121° |
| 2026-05-06 12:24 | 49.89127 | 7.31553 | 36800 ft | 453 kts | 122° |
| 2026-05-06 12:25 | 49.86126 | 7.40144 | 36794 ft | 453 kts | 122° |
| 2026-05-06 12:25 | 49.83117 | 7.48721 | 36803 ft | 453 kts | 122° |
| 2026-05-06 12:26 | 49.80106 | 7.57275 | 36802 ft | 453 kts | 122° |
| 2026-05-06 12:26 | 49.77102 | 7.65835 | 36793 ft | 452 kts | 122° |
| 2026-05-06 12:27 | 49.72431 | 7.79006 | 36787 ft | 452 kts | 123° |
| 2026-05-06 12:27 | 49.66366 | 7.96017 | 36792 ft | 451 kts | 122° |
| 2026-05-06 12:28 | 49.60287 | 8.12974 | 36773 ft | 452 kts | 123° |
| 2026-05-06 12:28 | 49.54168 | 8.29910 | 36801 ft | 453 kts | 123° |
| 2026-05-06 12:29 | 49.48033 | 8.46841 | 36828 ft | 452 kts | 123° |
| 2026-05-06 12:29 | 49.41865 | 8.63678 | 36813 ft | 452 kts | 123° |
| 2026-05-06 12:30 | 49.35669 | 8.80493 | 36811 ft | 453 kts | 123° |
| 2026-05-06 12:30 | 49.29401 | 8.97231 | 36777 ft | 453 kts | 124° |
| 2026-05-06 12:31 | 49.23031 | 9.13920 | 36790 ft | 455 kts | 124° |
| 2026-05-06 12:31 | 49.16638 | 9.30661 | 36803 ft | 456 kts | 124° |
| 2026-05-06 12:32 | 49.10213 | 9.47377 | 36797 ft | 457 kts | 126° |
| 2026-05-06 12:32 | 49.03738 | 9.64084 | 36831 ft | 457 kts | 125° |
| 2026-05-06 12:33 | 48.97249 | 9.80746 | 36824 ft | 457 kts | 126° |
| 2026-05-06 12:33 | 48.90734 | 9.97337 | 36827 ft | 457 kts | 126° |
| 2026-05-06 12:34 | 48.84261 | 10.13755 | 36808 ft | 455 kts | 126° |
| 2026-05-06 12:34 | 48.77969 | 10.30463 | 36839 ft | 455 kts | 125° |
| 2026-05-06 12:35 | 48.71649 | 10.47037 | 36844 ft | 453 kts | 126° |
| 2026-05-06 12:35 | 48.65296 | 10.63556 | 36823 ft | 454 kts | 126° |
| 2026-05-06 12:36 | 48.58998 | 10.80114 | 36823 ft | 458 kts | 120° |
| 2026-05-06 12:36 | 48.54721 | 10.98415 | 36778 ft | 463 kts | 115° |
| 2026-05-06 12:37 | 48.50479 | 11.16793 | 36789 ft | 464 kts | 115° |
| 2026-05-06 12:37 | 48.46214 | 11.35159 | 36778 ft | 465 kts | 115° |
| 2026-05-06 12:38 | 48.41905 | 11.53539 | 36791 ft | 465 kts | 115° |
| 2026-05-06 12:38 | 48.37595 | 11.71771 | 36773 ft | 466 kts | 115° |
| 2026-05-06 12:39 | 48.33213 | 11.90135 | 36794 ft | 467 kts | 115° |
| 2026-05-06 12:39 | 48.28797 | 12.08526 | 36800 ft | 468 kts | 116° |
| 2026-05-06 12:40 | 48.24387 | 12.26760 | 36787 ft | 469 kts | 116° |
| 2026-05-06 12:40 | 48.19939 | 12.44942 | 36794 ft | 469 kts | 116° |
| 2026-05-06 12:41 | 48.15413 | 12.63263 | 36795 ft | 469 kts | 116° |
| 2026-05-06 12:41 | 48.10209 | 12.81019 | 36791 ft | 464 kts | 121° |
| 2026-05-06 12:42 | 48.04643 | 12.98421 | 36773 ft | 464 kts | 122° |
| 2026-05-06 12:42 | 47.99997 | 13.12883 | 36784 ft | 463 kts | 122° |
| 2026-05-06 12:43 | 47.94385 | 13.30170 | 36768 ft | 463 kts | 122° |
| 2026-05-06 12:43 | 47.88761 | 13.47436 | 36778 ft | 463 kts | 122° |
| 2026-05-06 12:44 | 47.85921 | 13.56097 | 36333 ft | 463 kts | 123° |
| 2026-05-06 12:44 | 47.83061 | 13.64765 | 34726 ft | 469 kts | 123° |
| 2026-05-06 12:44 | 47.80153 | 13.73554 | 32960 ft | 478 kts | 124° |
| 2026-05-06 12:44 | 47.77196 | 13.82475 | 31060 ft | 485 kts | 123° |
| 2026-05-06 12:45 | 47.74188 | 13.91534 | 28752 ft | 493 kts | 122° |
| 2026-05-06 12:45 | 47.71194 | 14.00551 | 27294 ft | 478 kts | 121° |
| 2026-05-06 12:45 | 47.65424 | 14.17782 | 24464 ft | 460 kts | 122° |
| 2026-05-06 12:46 | 47.62547 | 14.26294 | 22998 ft | 453 kts | 122° |
| 2026-05-06 12:46 | 47.59763 | 14.34543 | 21652 ft | 441 kts | 122° |
| 2026-05-06 12:46 | 47.57083 | 14.42453 | 20429 ft | 429 kts | 121° |
| 2026-05-06 12:46 | 47.54418 | 14.50276 | 19271 ft | 422 kts | 122° |
| 2026-05-06 12:47 | 47.51787 | 14.57980 | 18128 ft | 414 kts | 122° |
| 2026-05-06 12:47 | 47.49216 | 14.65520 | 16962 ft | 407 kts | 122° |
| 2026-05-06 12:47 | 47.46675 | 14.72947 | 15789 ft | 401 kts | 122° |
| 2026-05-06 12:47 | 47.44165 | 14.80224 | 14599 ft | 395 kts | 121° |
| 2026-05-06 12:48 | 47.41680 | 14.87408 | 13328 ft | 392 kts | 121° |
| 2026-05-06 12:48 | 47.39215 | 14.94514 | 12077 ft | 385 kts | 121° |
| 2026-05-06 12:48 | 47.36792 | 15.01489 | 10824 ft | 379 kts | 121° |
| 2026-05-06 12:48 | 47.35071 | 15.06593 | 10486 ft | 357 kts | 120° |
| 2026-05-06 12:49 | 47.34028 | 15.09861 | 10334 ft | 335 kts | 120° |
| 2026-05-06 12:49 | 47.33084 | 15.12869 | 10208 ft | 311 kts | 120° |
| 2026-05-06 12:49 | 47.32207 | 15.15659 | 10093 ft | 289 kts | 120° |
| 2026-05-06 12:49 | 47.31383 | 15.18256 | 9885 ft | 270 kts | 121° |
| 2026-05-06 12:50 | 47.30603 | 15.20722 | 9777 ft | 266 kts | 118° |
| 2026-05-06 12:50 | 47.30139 | 15.23421 | 9628 ft | 277 kts | 98° |
| 2026-05-06 12:50 | 47.30249 | 15.26252 | 9513 ft | 278 kts | 83° |
| 2026-05-06 12:50 | 47.30617 | 15.29058 | 9127 ft | 279 kts | 84° |
| 2026-05-06 12:51 | 47.30559 | 15.31830 | 8726 ft | 266 kts | 112° |
| 2026-05-06 12:51 | 47.29703 | 15.34163 | 8347 ft | 257 kts | 139° |
| 2026-05-06 12:51 | 47.28308 | 15.35632 | 7963 ft | 239 kts | 163° |
| 2026-05-06 12:51 | 47.26766 | 15.36171 | 7629 ft | 225 kts | 175° |
| 2026-05-06 12:52 | 47.25243 | 15.36536 | 7303 ft | 220 kts | 174° |
| 2026-05-06 12:52 | 47.23745 | 15.36896 | 6968 ft | 216 kts | 174° |
| 2026-05-06 12:52 | 47.22294 | 15.37288 | 6684 ft | 206 kts | 174° |
| 2026-05-06 12:52 | 47.20905 | 15.37688 | 6429 ft | 198 kts | 173° |
| 2026-05-06 12:53 | 47.19567 | 15.38075 | 6165 ft | 194 kts | 173° |
| 2026-05-06 12:53 | 47.18240 | 15.38457 | 5909 ft | 195 kts | 173° |
| 2026-05-06 12:53 | 47.16956 | 15.38830 | 5670 ft | 185 kts | 173° |
| 2026-05-06 12:53 | 47.15724 | 15.39188 | 5403 ft | 176 kts | 172° |
| 2026-05-06 12:54 | 47.14552 | 15.39528 | 5173 ft | 168 kts | 172° |
| 2026-05-06 12:54 | 47.13423 | 15.39850 | 4861 ft | 163 kts | 171° |
| 2026-05-06 12:54 | 47.12339 | 15.40159 | 4549 ft | 153 kts | 172° |
| 2026-05-06 12:54 | 47.11327 | 15.40452 | 4274 ft | 141 kts | 175° |
| 2026-05-06 12:55 | 47.10382 | 15.40724 | 4015 ft | 137 kts | 176° |
| 2026-05-06 12:55 | 47.09455 | 15.40988 | 3763 ft | 135 kts | 176° |
| 2026-05-06 12:55 | 47.08535 | 15.41247 | 3505 ft | 134 kts | 176° |
| 2026-05-06 12:55 | 47.07625 | 15.41507 | 3253 ft | 133 kts | 176° |
| 2026-05-06 12:56 | 47.06721 | 15.41766 | 2992 ft | 132 kts | 175° |
| 2026-05-06 12:56 | 47.05820 | 15.42023 | 2759 ft | 132 kts | 176° |
| 2026-05-06 12:56 | 47.04916 | 15.42324 | 2503 ft | 133 kts | 173° |
| 2026-05-06 12:56 | 47.04025 | 15.42631 | 2220 ft | 130 kts | 174° |
| 2026-05-06 12:57 | 47.03118 | 15.42855 | 1951 ft | 134 kts | 173° |
| 2026-05-06 12:57 | 47.02207 | 15.43094 | 1697 ft | 131 kts | 173° |
| 2026-05-06 12:57 | 47.01320 | 15.43358 | 1426 ft | 129 kts | 174° |
| 2026-05-06 12:57 | 47.00435 | 15.43608 | 1203 ft | 129 kts | 174° |
| 2026-05-06 12:58 | 46.99553 | 15.43848 | 1332 ft | 133 kts | 173° |
| 2026-05-06 12:58 | 46.98626 | 15.44117 | 2090 ft | 137 kts | 172° |
| 2026-05-06 12:58 | 46.97682 | 15.44400 | 2595 ft | 146 kts | 173° |
| 2026-05-06 12:58 | 46.96732 | 15.45217 | 2836 ft | 183 kts | 132° |